Time;durP1;ratioP1;P1;durP2;ratioP2;P2;SDS_P1;SDS_P2;PMS_P1;PMS_P2;Temp;Humidity;BMP_temperature;BMP_pressure;BME280_temperature;BME280_humidity;BME280_pressure;Samples;Min_cycle;Max_cycle;Signal;HPM_P1;HPM_P2
2022/10/06 00:01:54;;;;;;;;;;;13.60;99.90;;;;;;4991591;28;19948;-69
2022/10/06 00:04:20;;;;;;;;;;;13.60;99.90;;;;;;4991546;28;19937;-70
2022/10/06 00:06:45;;;;;;;;;;;13.50;99.90;;;;;;4991680;28;19926;-70
2022/10/06 00:09:11;;;;;;;;;;;13.50;99.90;;;;;;4992113;28;20004;-69
2022/10/06 00:11:36;;;;;;;;;;;13.50;99.90;;;;;;4991565;28;19953;-71
2022/10/06 00:14:02;;;;;;;;;;;13.50;99.90;;;;;;4991279;28;19986;-70
2022/10/06 00:16:28;;;;;;;;;;;13.50;99.90;;;;;;4990631;28;19932;-70
2022/10/06 00:18:55;;;;;;;;;;;13.50;99.90;;;;;;4990978;28;19926;-70
2022/10/06 00:21:21;;;;;;;;;;;13.50;99.90;;;;;;4990805;28;19930;-70
2022/10/06 00:23:46;;;;;;;;;;;13.50;99.90;;;;;;4991251;28;19983;-76
2022/10/06 00:26:15;;;;;;;;;;;13.50;99.90;;;;;;4974143;28;19999;-69
2022/10/06 00:28:47;;;;;;;;;;;13.50;99.90;;;;;;5023285;28;20282;-69
2022/10/06 00:31:13;;;;;;;;;;;13.50;99.90;;;;;;4991559;28;20303;-71
2022/10/06 00:33:39;;;;;;;;;;;13.50;99.90;;;;;;4974245;28;19965;-69
2022/10/06 00:36:04;;;;;;;;;;;13.40;99.90;;;;;;4989886;28;20247;-69
2022/10/06 00:38:30;;;;;;;;;;;13.40;99.90;;;;;;4991394;28;19926;-70
2022/10/06 00:40:55;;;;;;;;;;;13.40;99.90;;;;;;4989582;28;19926;-72
2022/10/06 00:43:40;;;;;;;;;;;13.40;99.90;;;;;;4990925;28;19926;-70
2022/10/06 00:46:12;;;;;;;;;;;13.40;99.90;;;;;;4990846;28;19926;-69
2022/10/06 00:48:38;;;;;;;;;;;13.40;99.90;;;;;;4989409;28;19933;-67
2022/10/06 00:51:04;;;;;;;;;;;13.40;99.90;;;;;;4989520;28;20359;-67
2022/10/06 00:53:29;;;;;;;;;;;13.40;99.90;;;;;;4991097;28;19933;-67
2022/10/06 00:55:56;;;;;;;;;;;13.40;99.90;;;;;;4990558;28;20270;-67
2022/10/06 00:58:22;;;;;;;;;;;13.40;99.90;;;;;;4973351;28;19978;-67
2022/10/06 01:00:49;;;;;;;;;;;13.30;99.90;;;;;;4990000;28;20367;-67
2022/10/06 01:03:20;;;;;;;;;;;13.30;99.90;;;;;;4990771;28;19926;-67
2022/10/06 01:05:48;;;;;;;;;;;13.30;99.90;;;;;;4989519;28;19932;-67
2022/10/06 01:08:14;;;;;;;;;;;13.20;99.90;;;;;;4990165;28;19926;-67
2022/10/06 01:10:40;;;;;;;;;;;13.20;99.90;;;;;;4990949;28;19927;-67
2022/10/06 01:13:06;;;;;;;;;;;13.20;99.90;;;;;;4990638;28;20025;-67
2022/10/06 01:15:32;;;;;;;;;;;13.20;99.90;;;;;;4990833;28;20264;-67
2022/10/06 01:18:04;;;;;;;;;;;13.20;99.90;;;;;;4990105;28;20406;-67
2022/10/06 01:20:30;;;;;;;;;;;13.10;99.90;;;;;;4989545;28;19930;-67
2022/10/06 01:23:01;;;;;;;;;;;13.10;99.90;;;;;;4990313;28;19930;-67
2022/10/06 01:25:27;;;;;;;;;;;13.10;99.90;;;;;;4989044;28;19936;-66
2022/10/06 01:27:53;;;;;;;;;;;13.10;99.90;;;;;;4973415;28;19926;-66
2022/10/06 01:30:22;;;;;;;;;;;13.10;99.90;;;;;;4989473;28;19925;-66
2022/10/06 01:32:47;;;;;;;;;;;13.10;99.90;;;;;;4989622;28;19926;-66
2022/10/06 01:35:13;;;;;;;;;;;13.10;99.90;;;;;;4989759;28;19970;-66
2022/10/06 01:37:38;;;;;;;;;;;13.10;99.90;;;;;;4973573;28;20337;-66
2022/10/06 01:40:04;;;;;;;;;;;13.00;99.90;;;;;;4989287;28;19926;-66
2022/10/06 01:42:32;;;;;;;;;;;13.10;99.90;;;;;;4989021;28;20334;-66
2022/10/06 01:44:58;;;;;;;;;;;13.10;99.90;;;;;;4990006;28;19926;-68
2022/10/06 01:47:24;;;;;;;;;;;13.00;99.90;;;;;;4989327;28;19932;-67
2022/10/06 01:49:49;;;;;;;;;;;13.00;99.90;;;;;;4989320;28;20012;-66
2022/10/06 01:52:15;;;;;;;;;;;13.00;99.90;;;;;;4989100;28;19926;-66
2022/10/06 01:54:40;;;;;;;;;;;13.00;99.90;;;;;;4989168;28;20016;-66
2022/10/06 01:57:09;;;;;;;;;;;12.90;99.90;;;;;;4989856;28;19998;-66
2022/10/06 01:59:35;;;;;;;;;;;12.90;99.90;;;;;;4990020;28;20020;-66
2022/10/06 02:02:00;;;;;;;;;;;12.90;99.90;;;;;;4988673;28;19977;-68
2022/10/06 02:04:26;;;;;;;;;;;12.90;99.90;;;;;;4989580;28;19969;-66
2022/10/06 02:06:54;;;;;;;;;;;12.90;99.90;;;;;;4990022;28;19930;-66
2022/10/06 02:09:20;;;;;;;;;;;12.80;99.90;;;;;;4988564;28;19937;-66
2022/10/06 02:11:45;;;;;;;;;;;12.80;99.90;;;;;;4990080;28;19926;-66
2022/10/06 02:14:12;;;;;;;;;;;12.80;99.90;;;;;;4988532;28;19926;-66
2022/10/06 02:16:37;;;;;;;;;;;12.80;99.90;;;;;;4988887;28;19926;-67
2022/10/06 02:19:03;;;;;;;;;;;12.80;99.90;;;;;;4989686;28;20009;-68
2022/10/06 02:21:29;;;;;;;;;;;12.70;99.90;;;;;;4990102;28;19929;-66
2022/10/06 02:23:54;;;;;;;;;;;12.70;99.90;;;;;;4988870;28;19948;-66
2022/10/06 02:26:20;;;;;;;;;;;12.70;99.90;;;;;;4989508;28;20028;-66
2022/10/06 02:28:46;;;;;;;;;;;12.60;99.90;;;;;;5021240;28;20490;-66
2022/10/06 02:31:12;;;;;;;;;;;12.60;99.90;;;;;;4989406;28;19933;-66
2022/10/06 02:33:38;;;;;;;;;;;12.60;99.90;;;;;;4989894;28;19926;-66
2022/10/06 02:36:05;;;;;;;;;;;12.60;99.90;;;;;;4989776;28;20271;-68
2022/10/06 02:38:31;;;;;;;;;;;12.60;99.90;;;;;;4989713;28;19926;-66
2022/10/06 02:40:57;;;;;;;;;;;12.60;99.90;;;;;;4988701;28;19952;-66
2022/10/06 02:43:22;;;;;;;;;;;12.70;99.90;;;;;;4989417;28;19926;-66
2022/10/06 02:45:52;;;;;;;;;;;12.70;99.90;;;;;;4972273;28;19932;-66
2022/10/06 02:48:17;;;;;;;;;;;12.70;99.90;;;;;;4989341;28;19949;-66
2022/10/06 02:50:44;;;;;;;;;;;12.70;99.90;;;;;;4989350;28;19926;-66
2022/10/06 02:53:09;;;;;;;;;;;12.70;99.90;;;;;;4989160;28;19932;-67
2022/10/06 02:55:35;;;;;;;;;;;12.60;99.90;;;;;;4988337;28;20371;-66
2022/10/06 02:58:01;;;;;;;;;;;12.60;99.90;;;;;;4988841;28;20067;-66
2022/10/06 03:00:26;;;;;;;;;;;12.60;99.90;;;;;;4991976;28;19933;-66
2022/10/06 03:02:52;;;;;;;;;;;12.50;99.90;;;;;;4959422;28;20017;-67
2022/10/06 03:05:18;;;;;;;;;;;12.50;99.90;;;;;;4990860;28;20019;-66
2022/10/06 03:07:44;;;;;;;;;;;12.50;99.90;;;;;;4992541;28;19933;-66
2022/10/06 03:10:10;;;;;;;;;;;12.50;99.90;;;;;;4991943;28;19929;-68
2022/10/06 03:12:35;;;;;;;;;;;12.50;99.90;;;;;;4992311;28;20408;-67
2022/10/06 03:15:01;;;;;;;;;;;12.40;99.90;;;;;;4975048;28;19925;-66
2022/10/06 03:17:27;;;;;;;;;;;12.40;99.90;;;;;;4991000;28;19929;-66
2022/10/06 03:19:55;;;;;;;;;;;12.40;99.90;;;;;;4992217;28;19932;-67
2022/10/06 03:22:21;;;;;;;;;;;12.40;99.90;;;;;;4990699;28;19987;-65
2022/10/06 03:24:46;;;;;;;;;;;12.40;99.90;;;;;;4992352;28;19929;-66
2022/10/06 03:27:12;;;;;;;;;;;12.40;99.90;;;;;;4991734;28;20020;-67
2022/10/06 03:29:38;;;;;;;;;;;12.30;99.90;;;;;;4991170;28;19926;-66
2022/10/06 03:32:03;;;;;;;;;;;12.30;99.90;;;;;;4990868;28;19926;-66
2022/10/06 03:34:29;;;;;;;;;;;12.30;99.90;;;;;;4991646;28;19926;-67
2022/10/06 03:36:55;;;;;;;;;;;12.30;99.90;;;;;;4991777;28;20287;-67
2022/10/06 03:39:20;;;;;;;;;;;12.20;99.90;;;;;;4990662;28;19930;-66
2022/10/06 03:41:46;;;;;;;;;;;12.20;99.90;;;;;;4991369;28;19937;-66
2022/10/06 03:44:11;;;;;;;;;;;12.20;99.90;;;;;;4992108;28;20321;-68
2022/10/06 03:46:37;;;;;;;;;;;12.20;99.90;;;;;;4991878;28;19933;-66
2022/10/06 03:49:03;;;;;;;;;;;12.20;99.90;;;;;;4991539;28;20391;-66
2022/10/06 03:51:30;;;;;;;;;;;12.20;99.90;;;;;;4990412;28;20067;-66
2022/10/06 03:53:56;;;;;;;;;;;12.20;99.90;;;;;;5023370;28;19925;-67
2022/10/06 03:56:23;;;;;;;;;;;12.20;99.90;;;;;;4990293;28;19930;-66
2022/10/06 03:58:54;;;;;;;;;;;12.10;99.90;;;;;;4991541;28;19926;-66
2022/10/06 04:01:21;;;;;;;;;;;12.10;99.90;;;;;;4992239;28;19922;-66
2022/10/06 04:03:46;;;;;;;;;;;12.20;99.90;;;;;;4991729;28;19925;-67
2022/10/06 04:06:13;;;;;;;;;;;12.20;99.90;;;;;;4991922;28;19921;-66
2022/10/06 04:08:39;;;;;;;;;;;12.20;99.90;;;;;;4991826;28;19921;-66
2022/10/06 04:11:12;;;;;;;;;;;12.30;99.90;;;;;;4991478;28;19974;-66
2022/10/06 04:13:39;;;;;;;;;;;12.30;99.90;;;;;;4991471;28;19921;-66
2022/10/06 04:16:12;;;;;;;;;;;12.40;99.90;;;;;;4990732;28;19921;-66
2022/10/06 04:18:37;;;;;;;;;;;12.30;99.90;;;;;;4990292;28;19918;-66
2022/10/06 04:21:03;;;;;;;;;;;12.30;99.90;;;;;;4974851;28;19929;-66
2022/10/06 04:23:29;;;;;;;;;;;12.30;99.90;;;;;;4991491;28;20283;-66
2022/10/06 04:25:58;;;;;;;;;;;12.30;99.90;;;;;;4991554;28;19925;-66
2022/10/06 04:28:24;;;;;;;;;;;12.20;99.90;;;;;;4991240;28;19976;-66
2022/10/06 04:31:00;;;;;;;;;;;12.20;99.90;;;;;;4991791;28;19977;-66
2022/10/06 04:33:25;;;;;;;;;;;12.10;99.90;;;;;;4991243;28;20437;-66
2022/10/06 04:35:58;;;;;;;;;;;12.10;99.90;;;;;;4974365;28;20025;-66
2022/10/06 04:38:24;;;;;;;;;;;12.10;99.90;;;;;;4989909;28;19921;-67
2022/10/06 04:40:50;;;;;;;;;;;12.10;99.90;;;;;;4990303;28;19972;-66
2022/10/06 04:43:15;;;;;;;;;;;12.10;99.90;;;;;;4990488;28;19961;-66
2022/10/06 04:45:41;;;;;;;;;;;12.10;99.90;;;;;;4990840;28;19917;-66
2022/10/06 04:48:07;;;;;;;;;;;12.00;99.90;;;;;;4991391;28;20043;-66
2022/10/06 04:50:32;;;;;;;;;;;12.00;99.90;;;;;;4990896;28;19921;-66
2022/10/06 04:52:58;;;;;;;;;;;12.00;99.90;;;;;;4973751;28;20066;-66
2022/10/06 04:55:23;;;;;;;;;;;11.90;99.90;;;;;;4990649;28;19922;-68
2022/10/06 04:57:49;;;;;;;;;;;11.90;99.90;;;;;;4989948;28;19922;-66
2022/10/06 05:00:24;;;;;;;;;;;11.90;99.90;;;;;;4990905;28;20024;-66
2022/10/06 05:02:52;;;;;;;;;;;11.90;99.90;;;;;;4990969;28;19975;-66
2022/10/06 05:05:17;;;;;;;;;;;11.90;99.90;;;;;;4989719;28;19928;-66
2022/10/06 05:07:44;;;;;;;;;;;11.90;99.90;;;;;;4973131;28;20527;-66
2022/10/06 05:10:09;;;;;;;;;;;11.80;99.90;;;;;;4989847;28;19928;-66
2022/10/06 05:12:35;;;;;;;;;;;11.80;99.90;;;;;;4973249;28;20012;-66
2022/10/06 05:15:00;;;;;;;;;;;11.70;99.90;;;;;;4990957;28;19922;-66
2022/10/06 05:17:26;;;;;;;;;;;11.80;99.90;;;;;;4990593;28;19926;-68
2022/10/06 05:19:52;;;;;;;;;;;11.70;99.90;;;;;;4990927;28;19928;-66
2022/10/06 05:22:17;;;;;;;;;;;11.70;99.90;;;;;;4989534;28;19922;-66
2022/10/06 05:24:43;;;;;;;;;;;11.60;99.90;;;;;;5021892;28;20252;-66
2022/10/06 05:27:08;;;;;;;;;;;11.60;99.90;;;;;;4973326;28;20004;-67
2022/10/06 05:29:34;;;;;;;;;;;11.60;99.90;;;;;;4989973;28;19922;-66
2022/10/06 05:32:00;;;;;;;;;;;11.50;99.90;;;;;;4990498;28;19925;-66
2022/10/06 05:34:25;;;;;;;;;;;11.50;99.90;;;;;;4990213;28;19988;-66
2022/10/06 05:36:51;;;;;;;;;;;11.50;99.90;;;;;;4989886;28;19966;-64
2022/10/06 05:39:16;;;;;;;;;;;11.40;99.90;;;;;;4988925;28;19933;-67
2022/10/06 05:41:42;;;;;;;;;;;11.40;99.90;;;;;;4988631;28;19922;-67
2022/10/06 05:44:07;;;;;;;;;;;11.40;99.90;;;;;;4989874;28;19926;-66
2022/10/06 05:46:33;;;;;;;;;;;11.40;99.90;;;;;;4989538;28;20266;-66
2022/10/06 05:49:00;;;;;;;;;;;11.40;99.90;;;;;;4989795;28;19929;-66
2022/10/06 05:51:28;;;;;;;;;;;11.70;99.90;;;;;;4989991;28;19922;-66
2022/10/06 05:53:53;;;;;;;;;;;11.40;99.90;;;;;;4988790;28;19922;-66
2022/10/06 05:56:19;;;;;;;;;;;11.30;99.90;;;;;;4990221;28;19973;-67
2022/10/06 05:58:46;;;;;;;;;;;11.40;99.90;;;;;;4989219;28;19928;-66
2022/10/06 06:01:20;;;;;;;;;;;11.40;99.90;;;;;;4989987;28;19921;-66
2022/10/06 06:03:47;;;;;;;;;;;11.40;99.90;;;;;;4989587;28;19966;-66
2022/10/06 06:06:14;;;;;;;;;;;11.40;99.90;;;;;;4989408;28;19929;-66
2022/10/06 06:08:39;;;;;;;;;;;11.30;99.90;;;;;;4988626;28;19922;-66
2022/10/06 06:11:06;;;;;;;;;;;11.40;99.90;;;;;;4989999;28;20289;-66
2022/10/06 06:13:32;;;;;;;;;;;11.40;99.90;;;;;;4990049;28;19929;-66
2022/10/06 06:16:05;;;;;;;;;;;11.40;99.90;;;;;;4989294;28;19922;-66
2022/10/06 06:18:32;;;;;;;;;;;11.40;99.90;;;;;;4988940;28;19928;-66
2022/10/06 06:20:58;;;;;;;;;;;11.40;99.90;;;;;;4989634;28;19929;-66
2022/10/06 06:23:24;;;;;;;;;;;11.50;99.90;;;;;;4989658;28;20332;-66
2022/10/06 06:26:00;;;;;;;;;;;11.50;99.90;;;;;;4989408;28;19922;-66
2022/10/06 06:28:28;;;;;;;;;;;11.50;99.90;;;;;;4972579;28;19921;-66
2022/10/06 06:31:01;;;;;;;;;;;11.50;99.90;;;;;;4989311;28;19922;-66
2022/10/06 06:33:27;;;;;;;;;;;11.60;99.90;;;;;;4989215;28;19929;-65
2022/10/06 06:35:53;;;;;;;;;;;11.60;99.90;;;;;;4991427;28;20355;-65
2022/10/06 06:38:18;;;;;;;;;;;11.40;99.90;;;;;;4959725;28;19929;-66
2022/10/06 06:40:44;;;;;;;;;;;11.80;99.90;;;;;;4974997;28;20382;-66
2022/10/06 06:43:13;;;;;;;;;;;11.80;99.90;;;;;;4991336;28;19971;-66
2022/10/06 06:45:38;;;;;;;;;;;11.90;99.90;;;;;;4975472;28;19926;-68
2022/10/06 06:48:04;;;;;;;;;;;11.90;99.90;;;;;;4992809;28;19928;-66
2022/10/06 06:50:30;;;;;;;;;;;12.00;99.90;;;;;;4992886;28;20008;-67
2022/10/06 06:52:56;;;;;;;;;;;12.10;99.90;;;;;;4992667;28;20144;-68
2022/10/06 06:55:22;;;;;;;;;;;12.20;99.90;;;;;;5024530;28;20358;-67
2022/10/06 06:57:48;;;;;;;;;;;12.30;99.90;;;;;;4991241;28;19922;-68
2022/10/06 07:00:15;;;;;;;;;;;12.40;99.90;;;;;;4991872;28;19922;-67
2022/10/06 07:02:41;;;;;;;;;;;12.40;99.90;;;;;;4992580;28;19967;-69
2022/10/06 07:05:07;;;;;;;;;;;12.20;99.90;;;;;;4992688;28;19926;-67
2022/10/06 07:07:32;;;;;;;;;;;12.50;99.90;;;;;;4991552;28;20347;-67
2022/10/06 07:09:58;;;;;;;;;;;12.70;99.90;;;;;;4992433;28;19922;-67
2022/10/06 07:12:24;;;;;;;;;;;12.90;99.90;;;;;;5024681;28;19921;-66
2022/10/06 07:25:46;;;;;;;;;;;13.50;99.90;;;;;;4992310;28;20020;-65
2022/10/06 07:28:12;;;;;;;;;;;13.80;99.90;;;;;;4991190;28;19967;-65
2022/10/06 07:30:38;;;;;;;;;;;14.50;99.90;;;;;;4991192;28;20366;-65
2022/10/06 07:33:04;;;;;;;;;;;15.50;99.90;;;;;;4992009;28;19921;-66
2022/10/06 07:35:29;;;;;;;;;;;16.70;99.90;;;;;;4991424;28;20304;-68
2022/10/06 07:38:01;;;;;;;;;;;17.70;99.90;;;;;;4974816;28;19922;-69
2022/10/06 07:40:26;;;;;;;;;;;18.50;99.90;;;;;;4992321;28;19926;-70
2022/10/06 07:42:52;;;;;;;;;;;19.30;99.90;;;;;;4991895;28;19928;-67
2022/10/06 07:45:37;;;;;;;;;;;19.90;99.90;;;;;;4990008;28;19928;-68
2022/10/06 07:48:03;;;;;;;;;;;20.50;99.90;;;;;;4991192;28;19921;-68
2022/10/06 07:50:29;;;;;;;;;;;21.00;99.90;;;;;;4992148;28;19921;-68
2022/10/06 07:52:55;;;;;;;;;;;21.60;99.50;;;;;;4990440;28;19928;-68
2022/10/06 07:55:21;;;;;;;;;;;21.60;99.20;;;;;;4991793;28;19929;-68
2022/10/06 07:57:48;;;;;;;;;;;21.80;97.70;;;;;;4991787;28;20023;-68
2022/10/06 08:00:19;;;;;;;;;;;22.20;97.40;;;;;;4990733;28;19922;-68
2022/10/06 08:02:44;;;;;;;;;;;22.30;97.50;;;;;;4991087;28;20424;-68
2022/10/06 08:05:10;;;;;;;;;;;22.80;96.60;;;;;;4990362;28;19922;-68
2022/10/06 08:07:36;;;;;;;;;;;22.80;97.00;;;;;;4991663;28;20451;-67
2022/10/06 08:10:02;;;;;;;;;;;22.90;95.20;;;;;;4989800;28;19976;-68
2022/10/06 08:12:36;;;;;;;;;;;22.90;96.40;;;;;;4991613;28;19921;-68
2022/10/06 08:15:10;;;;;;;;;;;23.10;95.70;;;;;;4974141;28;20020;-69
2022/10/06 08:17:36;;;;;;;;;;;23.40;95.30;;;;;;4991895;28;19922;-69
2022/10/06 08:20:03;;;;;;;;;;;23.50;94.80;;;;;;4991260;28;20382;-69
2022/10/06 08:22:29;;;;;;;;;;;23.60;95.50;;;;;;4990333;28;19928;-69
2022/10/06 08:24:57;;;;;;;;;;;23.80;94.40;;;;;;4990731;28;20020;-70
2022/10/06 08:27:24;;;;;;;;;;;24.20;94.40;;;;;;4991431;28;19951;-69
2022/10/06 08:29:49;;;;;;;;;;;24.20;93.00;;;;;;4991269;28;19922;-67
2022/10/06 08:32:16;;;;;;;;;;;24.10;93.10;;;;;;4990726;28;19998;-66
2022/10/06 08:34:41;;;;;;;;;;;24.30;93.70;;;;;;4991307;28;19922;-70
2022/10/06 08:37:07;;;;;;;;;;;24.50;93.90;;;;;;4990875;28;19929;-68
2022/10/06 08:39:32;;;;;;;;;;;24.40;92.70;;;;;;4990174;28;19925;-67
2022/10/06 08:41:58;;;;;;;;;;;24.40;92.80;;;;;;4990684;28;19925;-69
2022/10/06 08:44:40;;;;;;;;;;;24.40;93.00;;;;;;4990744;28;20008;-68
2022/10/06 08:47:17;;;;;;;;;;;24.10;92.50;;;;;;4989254;28;20002;-67
2022/10/06 08:49:44;;;;;;;;;;;23.90;92.80;;;;;;4972910;28;19974;-71
2022/10/06 08:52:22;;;;;;;;;;;23.90;92.80;;;;;;4990628;28;19925;-68
2022/10/06 08:54:53;;;;;;;;;;;23.70;92.80;;;;;;4990972;28;20473;-69
2022/10/06 08:57:20;;;;;;;;;;;22.80;93.20;;;;;;5022502;28;20506;-68
2022/10/06 08:59:47;;;;;;;;;;;22.20;94.10;;;;;;5022367;28;19928;-68
2022/10/06 09:02:19;;;;;;;;;;;21.60;94.50;;;;;;4989633;28;19928;-68
2022/10/06 09:04:47;;;;;;;;;;;21.10;94.50;;;;;;4991023;28;19976;-67
2022/10/06 09:07:15;;;;;;;;;;;20.70;95.00;;;;;;4989461;28;19929;-69
2022/10/06 09:09:56;;;;;;;;;;;20.40;95.40;;;;;;4991064;28;19929;-68
2022/10/06 09:12:37;;;;;;;;;;;20.00;95.70;;;;;;4973337;28;19918;-68
2022/10/06 09:15:21;;;;;;;;;;;19.70;95.80;;;;;;4989631;28;19922;-70
2022/10/06 09:17:49;;;;;;;;;;;19.40;96.50;;;;;;5022496;28;19972;-70
2022/10/06 09:20:19;;;;;;;;;;;19.30;97.00;;;;;;4990466;28;20372;-70
2022/10/06 09:22:46;;;;;;;;;;;19.20;97.10;;;;;;4989805;28;19929;-70
2022/10/06 09:25:16;;;;;;;;;;;19.10;97.00;;;;;;4989928;28;19961;-69
2022/10/06 09:27:42;;;;;;;;;;;19.10;97.40;;;;;;4990525;28;20009;-74
2022/10/06 09:30:11;;;;;;;;;;;18.90;97.00;;;;;;5005717;28;20075;-72
2022/10/06 09:32:39;;;;;;;;;;;18.70;97.10;;;;;;4989300;28;19929;-72
2022/10/06 09:35:15;;;;;;;;;;;18.60;97.20;;;;;;4990444;28;20008;-73
2022/10/06 09:37:57;;;;;;;;;;;18.50;97.50;;;;;;4990634;28;19975;-73
2022/10/06 09:40:55;;;;;;;;;;;18.40;97.50;;;;;;4972696;28;19922;-73
2022/10/06 09:43:24;;;;;;;;;;;18.40;97.70;;;;;;4991480;28;20351;-70
2022/10/06 09:45:51;;;;;;;;;;;18.30;97.90;;;;;;4989228;28;20349;-69
2022/10/06 09:48:19;;;;;;;;;;;18.20;97.60;;;;;;4988511;28;20420;-73
2022/10/06 09:51:05;;;;;;;;;;;18.20;98.30;;;;;;4990290;28;19928;-74
2022/10/06 09:53:30;;;;;;;;;;;18.20;98.40;;;;;;4990036;28;19922;-70
2022/10/06 09:55:56;;;;;;;;;;;18.20;98.20;;;;;;4990655;28;20425;-69
2022/10/06 09:58:38;;;;;;;;;;;18.20;97.80;;;;;;4989916;28;20008;-69
2022/10/06 10:01:07;;;;;;;;;;;18.20;98.00;;;;;;4989290;28;19968;-68
2022/10/06 10:03:40;;;;;;;;;;;18.10;97.50;;;;;;4988939;28;19922;-71
2022/10/06 10:06:05;;;;;;;;;;;18.10;97.80;;;;;;4989323;28;19929;-69
2022/10/06 10:08:31;;;;;;;;;;;18.00;97.80;;;;;;4989263;28;19922;-65
2022/10/06 10:13:58;;;;;;;;;;;17.90;97.40;;;;;;4990166;28;20020;-66
2022/10/06 10:16:29;;;;;;;;;;;18.00;97.70;;;;;;4989560;28;19929;-71
2022/10/06 10:18:55;;;;;;;;;;;18.00;97.40;;;;;;4989890;28;19941;-68
2022/10/06 10:21:28;;;;;;;;;;;18.10;97.60;;;;;;4989629;28;19921;-67
2022/10/06 10:23:55;;;;;;;;;;;18.10;97.40;;;;;;4989967;28;19944;-65
2022/10/06 10:26:36;;;;;;;;;;;18.10;97.20;;;;;;4971987;28;19971;-67
2022/10/06 10:29:02;;;;;;;;;;;18.20;97.80;;;;;;4988587;28;20374;-66
2022/10/06 10:31:40;;;;;;;;;;;18.20;97.20;;;;;;4987755;28;19922;-68
2022/10/06 10:34:05;;;;;;;;;;;18.20;97.50;;;;;;4989718;28;19922;-66
2022/10/06 10:36:53;;;;;;;;;;;18.20;97.10;;;;;;4988417;28;19990;-67
2022/10/06 10:39:40;;;;;;;;;;;18.10;97.10;;;;;;4988319;28;19921;-69
2022/10/06 10:42:27;;;;;;;;;;;18.10;97.40;;;;;;4988434;28;19929;-66
2022/10/06 10:44:59;;;;;;;;;;;18.10;96.90;;;;;;5020672;28;19921;-68
2022/10/06 10:47:27;;;;;;;;;;;18.10;96.50;;;;;;4989185;28;20263;-67
2022/10/06 10:49:57;;;;;;;;;;;18.10;97.10;;;;;;4989622;28;19922;-67
2022/10/06 10:52:26;;;;;;;;;;;18.10;97.10;;;;;;4989331;28;20408;-69
2022/10/06 10:55:14;;;;;;;;;;;18.10;96.50;;;;;;4988791;28;20017;-67
2022/10/06 10:57:42;;;;;;;;;;;18.10;96.50;;;;;;4989340;28;19922;-67
2022/10/06 11:00:14;;;;;;;;;;;18.20;96.70;;;;;;5004696;28;19922;-67
2022/10/06 11:02:40;;;;;;;;;;;18.30;96.70;;;;;;4988055;28;19987;-66
2022/10/06 11:05:23;;;;;;;;;;;18.50;96.60;;;;;;4988304;28;20393;-67
2022/10/06 11:07:52;;;;;;;;;;;18.50;96.30;;;;;;4989379;28;20282;-69
2022/10/06 11:10:24;;;;;;;;;;;18.40;95.80;;;;;;5020789;28;19921;-73
2022/10/06 11:13:00;;;;;;;;;;;18.50;96.40;;;;;;4989436;28;19922;-67
2022/10/06 11:15:32;;;;;;;;;;;18.50;95.90;;;;;;4988742;28;20399;-69
2022/10/06 11:18:05;;;;;;;;;;;18.60;95.30;;;;;;4988069;28;19922;-68
2022/10/06 11:20:43;;;;;;;;;;;18.50;94.90;;;;;;4990020;28;19922;-69
2022/10/06 11:23:24;;;;;;;;;;;18.40;94.70;;;;;;4991510;28;19921;-67
2022/10/06 11:25:58;;;;;;;;;;;18.40;95.20;;;;;;4992732;28;19973;-68
2022/10/06 11:28:28;;;;;;;;;;;18.40;95.50;;;;;;4975211;28;19928;-68
2022/10/06 11:31:02;;;;;;;;;;;18.40;95.40;;;;;;4992788;28;20333;-67
2022/10/06 11:33:32;;;;;;;;;;;18.40;95.50;;;;;;4991057;28;20462;-68
2022/10/06 11:35:59;;;;;;;;;;;18.40;95.10;;;;;;4992677;28;19926;-68
2022/10/06 11:38:44;;;;;;;;;;;18.30;95.30;;;;;;5023778;28;19922;-68
2022/10/06 11:41:30;;;;;;;;;;;18.30;94.50;;;;;;4991612;28;20294;-69
2022/10/06 11:44:12;;;;;;;;;;;18.30;94.20;;;;;;4992548;28;20336;-68
2022/10/06 11:47:03;;;;;;;;;;;18.20;94.20;;;;;;4991946;28;19921;-70
2022/10/06 11:49:32;;;;;;;;;;;18.20;94.40;;;;;;4992071;28;20340;-69
2022/10/06 11:52:10;;;;;;;;;;;18.30;94.80;;;;;;4991367;28;20164;-69
2022/10/06 11:54:38;;;;;;;;;;;18.40;95.20;;;;;;4974493;28;20329;-66
2022/10/06 11:57:22;;;;;;;;;;;18.50;94.50;;;;;;4992117;28;19922;-66
2022/10/06 11:59:49;;;;;;;;;;;18.50;94.00;;;;;;4992020;28;19922;-67
2022/10/06 12:02:33;;;;;;;;;;;18.60;94.20;;;;;;4991129;28;19968;-68
2022/10/06 12:05:08;;;;;;;;;;;18.60;94.50;;;;;;4990836;28;19925;-68
2022/10/06 12:07:57;;;;;;;;;;;18.70;94.40;;;;;;4991756;28;19944;-68
2022/10/06 12:10:28;;;;;;;;;;;18.70;94.10;;;;;;4995857;28;19944;-68
2022/10/06 12:12:57;;;;;;;;;;;18.60;94.40;;;;;;4992086;28;20290;-67
2022/10/06 12:15:33;;;;;;;;;;;18.60;94.80;;;;;;4992007;28;19974;-68
2022/10/06 12:18:17;;;;;;;;;;;18.50;94.10;;;;;;4990910;28;19921;-68
2022/10/06 12:20:50;;;;;;;;;;;18.50;93.90;;;;;;4990167;28;20002;-67
2022/10/06 12:23:21;;;;;;;;;;;18.40;93.50;;;;;;4991934;28;19921;-67
2022/10/06 12:26:10;;;;;;;;;;;18.30;93.30;;;;;;4990359;28;20018;-66
2022/10/06 12:28:47;;;;;;;;;;;18.20;93.60;;;;;;5008871;28;19930;-67
2022/10/06 12:31:22;;;;;;;;;;;18.20;94.20;;;;;;4990903;28;19922;-68
2022/10/06 12:33:48;;;;;;;;;;;18.20;94.80;;;;;;4989929;28;20005;-68
2022/10/06 12:36:18;;;;;;;;;;;18.20;95.10;;;;;;4991524;28;20024;-67
2022/10/06 12:39:05;;;;;;;;;;;18.20;95.20;;;;;;4990703;28;20524;-66
2022/10/06 12:42:03;;;;;;;;;;;18.30;94.90;;;;;;4990761;28;19944;-65
2022/10/06 12:44:39;;;;;;;;;;;18.30;95.30;;;;;;5023852;28;19922;-67
2022/10/06 12:47:31;;;;;;;;;;;18.40;94.80;;;;;;5005788;28;19921;-67
2022/10/06 12:50:20;;;;;;;;;;;18.50;94.40;;;;;;4993469;28;20020;-68
2022/10/06 12:52:49;;;;;;;;;;;18.40;94.70;;;;;;4998452;28;19999;-67
2022/10/06 12:55:31;;;;;;;;;;;18.40;95.20;;;;;;4991221;28;20370;-66
2022/10/06 12:57:56;;;;;;;;;;;18.50;95.40;;;;;;4990568;28;19925;-66
2022/10/06 13:00:22;;;;;;;;;;;18.60;95.00;;;;;;4990033;28;19944;-66
2022/10/06 13:02:47;;;;;;;;;;;18.60;95.30;;;;;;4990842;28;19922;-68
2022/10/06 13:05:13;;;;;;;;;;;18.60;94.60;;;;;;4990979;28;19945;-67
2022/10/06 13:07:54;;;;;;;;;;;18.60;94.50;;;;;;4990799;28;19932;-67
2022/10/06 13:10:20;;;;;;;;;;;18.40;94.30;;;;;;4990051;28;19986;-67
2022/10/06 13:12:49;;;;;;;;;;;18.30;94.80;;;;;;4990525;28;19933;-65
2022/10/06 13:15:22;;;;;;;;;;;18.20;94.60;;;;;;4990932;28;19928;-65
2022/10/06 13:18:06;;;;;;;;;;;18.20;94.40;;;;;;4989577;28;20008;-65
2022/10/06 13:20:51;;;;;;;;;;;18.20;94.70;;;;;;4991021;28;20412;-66
2022/10/06 13:23:27;;;;;;;;;;;18.10;94.70;;;;;;5006061;28;19979;-65
2022/10/06 13:25:56;;;;;;;;;;;18.10;94.70;;;;;;4988625;28;19922;-63
2022/10/06 13:28:26;;;;;;;;;;;18.10;95.00;;;;;;4990608;28;19922;-63
2022/10/06 13:31:00;;;;;;;;;;;18.00;94.50;;;;;;4989391;28;20016;-63
2022/10/06 13:33:36;;;;;;;;;;;18.00;94.50;;;;;;4990521;28;19941;-62
2022/10/06 13:36:02;;;;;;;;;;;17.90;94.70;;;;;;4990739;28;20283;-63
2022/10/06 13:38:33;;;;;;;;;;;17.80;94.70;;;;;;5006056;28;19922;-63
2022/10/06 13:41:18;;;;;;;;;;;17.70;94.20;;;;;;4990406;28;19922;-63
2022/10/06 13:43:50;;;;;;;;;;;17.70;94.60;;;;;;4989215;28;19922;-62
2022/10/06 13:46:18;;;;;;;;;;;17.70;94.80;;;;;;4989341;28;19922;-63
2022/10/06 13:48:45;;;;;;;;;;;17.70;95.00;;;;;;4988963;28;20032;-63
2022/10/06 13:51:18;;;;;;;;;;;17.60;94.60;;;;;;5022114;28;19977;-63
2022/10/06 13:53:45;;;;;;;;;;;17.60;95.00;;;;;;4990115;28;19929;-62
2022/10/06 13:56:23;;;;;;;;;;;17.50;94.80;;;;;;4989280;28;19973;-63
2022/10/06 13:58:48;;;;;;;;;;;17.50;94.70;;;;;;4990132;28;19965;-64
2022/10/06 14:01:14;;;;;;;;;;;17.50;94.60;;;;;;4988736;28;20307;-65
2022/10/06 14:03:40;;;;;;;;;;;17.50;94.70;;;;;;4989836;28;19922;-61
2022/10/06 14:06:15;;;;;;;;;;;17.50;94.70;;;;;;4988502;28;20009;-65
2022/10/06 14:08:44;;;;;;;;;;;17.40;94.70;;;;;;4990216;28;20307;-68
2022/10/06 14:11:10;;;;;;;;;;;17.40;94.70;;;;;;5004719;28;19922;-64
2022/10/06 14:13:45;;;;;;;;;;;17.40;94.70;;;;;;4990035;28;20156;-63
2022/10/06 14:16:18;;;;;;;;;;;17.40;95.00;;;;;;4989953;28;20379;-65
2022/10/06 14:18:45;;;;;;;;;;;17.40;94.90;;;;;;5021226;28;19934;-68
2022/10/06 14:21:29;;;;;;;;;;;17.40;95.00;;;;;;4989978;28;19974;-63
2022/10/06 14:23:55;;;;;;;;;;;17.30;95.00;;;;;;4989671;28;19971;-63
2022/10/06 14:26:25;;;;;;;;;;;17.30;95.30;;;;;;4989788;28;19969;-64
2022/10/06 14:28:52;;;;;;;;;;;17.30;95.80;;;;;;4988068;28;19994;-64
2022/10/06 14:31:21;;;;;;;;;;;17.30;95.90;;;;;;4989543;28;19941;-63
2022/10/06 14:33:47;;;;;;;;;;;17.30;95.60;;;;;;5021289;28;19976;-71
2022/10/06 14:36:14;;;;;;;;;;;17.30;95.70;;;;;;4989965;28;19929;-61
2022/10/06 14:38:40;;;;;;;;;;;17.30;95.60;;;;;;4989670;28;19922;-64
2022/10/06 14:41:05;;;;;;;;;;;17.30;95.50;;;;;;4989261;28;20509;-64
2022/10/06 14:43:31;;;;;;;;;;;17.20;95.60;;;;;;4989475;28;19929;-63